createdAt,value
2018-12-26T00:02:38.162Z,15.03
2018-12-26T00:05:18.565Z,14.73
2018-12-26T00:07:58.511Z,14.50
2018-12-26T00:10:38.713Z,14.13
2018-12-26T00:13:18.780Z,13.93
2018-12-26T00:15:58.959Z,14.97
2018-12-26T00:18:38.950Z,13.97
2018-12-26T00:21:19.057Z,13.77
2018-12-26T00:23:59.023Z,15.17
2018-12-26T00:26:39.095Z,13.47
2018-12-26T00:29:19.008Z,13.17
2018-12-26T00:31:59.212Z,14.33
2018-12-26T00:34:39.083Z,13.33
2018-12-26T00:37:18.997Z,13.33
2018-12-26T00:39:58.928Z,13.83
2018-12-26T00:42:39.199Z,12.77
2018-12-26T00:45:19.003Z,14.77
2018-12-26T00:47:59.259Z,12.17
2018-12-26T00:50:39.015Z,14.27
2018-12-26T00:53:19.038Z,13.50
2018-12-26T00:55:59.118Z,14.40
2018-12-26T00:58:39.154Z,13.47
2018-12-26T01:01:19.131Z,13.73
2018-12-26T01:03:59.116Z,14.47
2018-12-26T01:06:39.304Z,13.63
2018-12-26T01:09:19.348Z,12.77
2018-12-26T01:11:59.295Z,13.67
2018-12-26T01:14:39.288Z,13.20
2018-12-26T01:17:19.419Z,14.03
2018-12-26T01:19:59.359Z,13.17
2018-12-26T01:22:39.550Z,12.80
2018-12-26T01:25:19.376Z,13.13
2018-12-26T01:27:59.360Z,13.47
2018-12-26T01:30:39.241Z,13.37
2018-12-26T01:33:19.407Z,14.13
2018-12-26T01:35:59.491Z,13.10
2018-12-26T01:38:39.334Z,13.53
2018-12-26T01:41:19.425Z,14.83
2018-12-26T01:43:59.832Z,14.00
2018-12-26T01:46:39.676Z,13.97
2018-12-26T01:49:19.737Z,13.70
2018-12-26T01:51:59.708Z,13.53
2018-12-26T01:54:39.706Z,12.50
2018-12-26T01:57:19.723Z,13.50
2018-12-26T01:59:59.736Z,13.40
2018-12-26T02:02:39.720Z,13.50
2018-12-26T02:05:19.591Z,14.13
2018-12-26T02:07:59.622Z,14.03
2018-12-26T02:10:39.708Z,14.37
2018-12-26T02:13:19.706Z,14.43
2018-12-26T02:15:59.800Z,13.20
2018-12-26T02:18:39.830Z,15.00
2018-12-26T02:21:19.665Z,14.00
2018-12-26T02:23:59.467Z,15.23
2018-12-26T02:26:39.429Z,13.53
2018-12-26T02:29:19.422Z,13.63
2018-12-26T02:31:59.850Z,13.43
2018-12-26T02:34:39.922Z,14.40
2018-12-26T02:37:19.757Z,12.87
2018-12-26T02:39:59.875Z,14.03
2018-12-26T02:42:40.011Z,14.30
2018-12-26T02:45:20.007Z,14.93
2018-12-26T02:47:59.878Z,13.83
2018-12-26T02:50:40.114Z,13.37
2018-12-26T02:53:20.081Z,14.20
2018-12-26T02:56:00.358Z,13.77
2018-12-26T02:58:40.254Z,13.43
2018-12-26T03:01:20.358Z,13.10
2018-12-26T03:04:00.475Z,14.03
2018-12-26T03:06:40.798Z,14.23
2018-12-26T03:09:20.685Z,13.80
2018-12-26T03:12:00.763Z,14.00
2018-12-26T03:14:40.958Z,13.80
2018-12-26T03:17:21.192Z,12.57
2018-12-26T03:20:01.193Z,14.27
2018-12-26T03:22:41.467Z,12.53
2018-12-26T03:25:21.315Z,13.63
2018-12-26T03:28:01.344Z,13.03
2018-12-26T03:30:41.223Z,12.67
2018-12-26T03:33:21.138Z,13.10
2018-12-26T03:36:01.169Z,13.20
2018-12-26T03:38:41.070Z,14.00
2018-12-26T03:41:21.182Z,12.60
2018-12-26T03:44:01.142Z,12.37
2018-12-26T03:46:41.161Z,14.53
2018-12-26T03:49:20.974Z,12.87
2018-12-26T03:52:02.247Z,12.77
2018-12-26T03:54:42.031Z,13.60
2018-12-26T03:57:21.975Z,13.67
2018-12-26T04:00:02.001Z,12.97
2018-12-26T04:02:42.181Z,13.80
2018-12-26T04:05:22.140Z,12.97
2018-12-26T04:08:02.280Z,12.67
2018-12-26T04:10:42.352Z,13.83
2018-12-26T04:13:22.363Z,14.17
2018-12-26T04:16:02.393Z,12.83
2018-12-26T04:18:42.469Z,14.23
2018-12-26T04:21:22.360Z,13.77
2018-12-26T04:24:02.638Z,14.83
2018-12-26T04:26:42.820Z,14.13
2018-12-26T04:29:23.014Z,13.53
2018-12-26T04:32:03.315Z,14.40
2018-12-26T04:34:43.521Z,14.83
2018-12-26T04:37:23.562Z,14.33
2018-12-26T04:40:03.800Z,13.17
2018-12-26T04:42:43.558Z,14.47
2018-12-26T04:45:23.790Z,15.83
2018-12-26T04:48:03.682Z,14.23
2018-12-26T04:50:43.660Z,14.70
2018-12-26T04:53:23.834Z,16.07
2018-12-26T04:56:03.933Z,14.83
2018-12-26T04:58:43.941Z,17.10
2018-12-26T05:01:24.071Z,14.03
2018-12-26T05:04:04.082Z,15.93
2018-12-26T05:06:44.346Z,16.10
2018-12-26T05:09:24.193Z,16.60
2018-12-26T05:12:05.714Z,17.50
2018-12-26T05:14:46.062Z,17.63
2018-12-26T05:17:26.067Z,17.93
2018-12-26T05:20:05.790Z,18.63
2018-12-26T05:22:45.817Z,16.60
2018-12-26T05:25:25.679Z,17.37
2018-12-26T05:28:05.801Z,18.87
2018-12-26T05:30:45.785Z,20.33
2018-12-26T05:33:26.014Z,20.57
2018-12-26T05:36:05.954Z,18.83
2018-12-26T05:38:46.278Z,19.80
2018-12-26T05:41:26.454Z,17.97
2018-12-26T05:44:06.506Z,19.87
2018-12-26T05:46:46.537Z,20.57
2018-12-26T05:49:14.210Z,20.77
2018-12-26T05:52:01.338Z,20.00
2018-12-26T05:54:48.466Z,20.23
2018-12-26T05:57:28.682Z,19.93
2018-12-26T06:00:08.726Z,21.47
2018-12-26T06:02:49.014Z,22.13
2018-12-26T06:05:29.091Z,21.93
2018-12-26T06:08:09.014Z,20.67
2018-12-26T06:10:49.011Z,20.63
2018-12-26T06:13:28.825Z,22.07
2018-12-26T06:16:08.801Z,24.23
2018-12-26T06:18:48.786Z,20.87
2018-12-26T06:21:28.841Z,20.57
2018-12-26T06:24:08.876Z,21.70
2018-12-26T06:26:48.832Z,21.77
2018-12-26T06:29:28.724Z,21.80
2018-12-26T06:32:08.748Z,22.73
2018-12-26T06:34:48.827Z,21.87
2018-12-26T06:37:28.759Z,21.80
2018-12-26T06:40:08.710Z,21.67
2018-12-26T06:42:48.510Z,19.93
2018-12-26T06:45:28.458Z,21.30
2018-12-26T06:48:08.658Z,22.17
2018-12-26T06:50:49.070Z,20.37
2018-12-26T06:53:29.012Z,21.80
2018-12-26T06:56:09.141Z,21.93
2018-12-26T06:58:49.116Z,21.80
2018-12-26T07:01:29.150Z,22.00
2018-12-26T07:04:09.048Z,22.03
2018-12-26T07:06:49.049Z,24.03
2018-12-26T07:09:29.175Z,24.23
2018-12-26T07:12:09.084Z,22.67
2018-12-26T07:14:49.101Z,23.50
2018-12-26T07:17:29.189Z,24.27
2018-12-26T07:20:08.997Z,24.33
2018-12-26T07:22:48.956Z,23.47
2018-12-26T07:25:29.020Z,23.63
2018-12-26T07:28:09.522Z,22.83
2018-12-26T07:30:50.079Z,23.17
2018-12-26T07:33:30.172Z,22.80
2018-12-26T07:36:10.189Z,22.33
2018-12-26T07:38:50.173Z,24.17
2018-12-26T07:41:30.258Z,23.93
2018-12-26T07:44:10.280Z,22.63
2018-12-26T07:46:50.161Z,22.33
2018-12-26T07:49:30.320Z,23.07
2018-12-26T07:52:10.360Z,22.53
2018-12-26T07:54:50.759Z,22.77
2018-12-26T07:57:30.773Z,22.73
2018-12-26T08:00:10.724Z,22.17
2018-12-26T08:02:50.910Z,21.47
2018-12-26T08:05:30.868Z,22.40
2018-12-26T08:08:10.802Z,22.73
2018-12-26T08:10:50.736Z,21.60
2018-12-26T08:13:31.086Z,21.83
2018-12-26T08:16:10.933Z,23.13
2018-12-26T08:18:51.169Z,23.07
2018-12-26T08:21:31.223Z,23.07
2018-12-26T08:24:11.221Z,23.77
2018-12-26T08:26:51.278Z,22.40
2018-12-26T08:29:33.353Z,23.47
2018-12-26T08:32:13.473Z,24.97
2018-12-26T08:34:53.722Z,23.17
2018-12-26T08:37:34.303Z,26.17
2018-12-26T08:40:14.103Z,24.43
2018-12-26T08:42:54.199Z,24.17
2018-12-26T08:45:34.485Z,23.50
2018-12-26T08:48:14.496Z,23.70
2018-12-26T08:50:54.702Z,24.87
2018-12-26T08:53:34.818Z,23.47
2018-12-26T08:56:15.021Z,24.87
2018-12-26T08:58:56.851Z,25.70
2018-12-26T09:01:37.270Z,27.50
2018-12-26T09:04:17.105Z,23.23
2018-12-26T09:06:57.130Z,25.23
2018-12-26T09:09:37.363Z,24.93
2018-12-26T09:12:17.357Z,26.10
2018-12-26T09:14:57.239Z,24.93
2018-12-26T09:17:37.280Z,25.40
2018-12-26T09:20:17.481Z,23.17
2018-12-26T09:22:57.601Z,22.83
2018-12-26T09:25:37.506Z,24.93
2018-12-26T09:28:17.377Z,23.73
2018-12-26T09:30:57.277Z,23.57
2018-12-26T09:33:37.267Z,26.13
2018-12-26T09:36:17.289Z,25.97
2018-12-26T09:38:57.261Z,23.90
2018-12-26T09:41:37.206Z,25.03
2018-12-26T09:44:17.235Z,25.53
2018-12-26T09:46:57.271Z,23.77
2018-12-26T09:49:37.454Z,25.77
2018-12-26T09:52:17.429Z,25.63
2018-12-26T09:54:57.434Z,26.07
2018-12-26T09:57:37.532Z,25.37
2018-12-26T10:00:17.473Z,26.57
2018-12-26T10:02:57.632Z,27.20
2018-12-26T10:05:37.569Z,26.17
2018-12-26T10:08:17.467Z,26.10
2018-12-26T10:10:57.641Z,27.57
2018-12-26T10:13:37.583Z,27.50
2018-12-26T10:16:17.356Z,27.73
2018-12-26T10:18:57.534Z,27.30
2018-12-26T10:21:37.595Z,27.37
2018-12-26T10:24:17.536Z,24.93
2018-12-26T10:26:57.553Z,26.20
2018-12-26T10:29:37.700Z,26.30
2018-12-26T10:32:17.489Z,28.03
2018-12-26T10:34:57.521Z,26.53
2018-12-26T10:37:37.393Z,29.67
2018-12-26T10:40:17.474Z,26.53
2018-12-26T10:42:57.373Z,26.80
2018-12-26T10:45:37.422Z,26.87
2018-12-26T10:48:17.426Z,27.43
2018-12-26T10:50:57.285Z,26.57
2018-12-26T10:53:37.167Z,26.97
2018-12-26T10:56:17.327Z,26.17
2018-12-26T10:58:57.085Z,26.17
2018-12-26T11:01:37.185Z,28.43
2018-12-26T11:04:17.077Z,25.73
2018-12-26T11:06:56.873Z,27.27
2018-12-26T11:09:36.839Z,26.07
2018-12-26T11:12:16.889Z,26.73
2018-12-26T11:14:56.955Z,25.73
2018-12-26T11:17:36.926Z,26.20
2018-12-26T11:20:16.967Z,26.37
2018-12-26T11:22:57.000Z,26.93
2018-12-26T11:25:36.565Z,26.00
2018-12-26T11:28:16.652Z,28.03
2018-12-26T11:30:56.387Z,28.07
2018-12-26T11:33:36.377Z,28.40
2018-12-26T11:36:16.045Z,27.53
2018-12-26T11:38:56.090Z,28.97
2018-12-26T11:41:35.981Z,28.23
2018-12-26T11:44:16.014Z,27.00
2018-12-26T11:46:56.982Z,28.07
2018-12-26T11:49:37.492Z,26.87
2018-12-26T11:52:17.664Z,27.33
2018-12-26T11:54:57.850Z,28.17
2018-12-26T11:57:37.733Z,26.80
2018-12-26T12:00:17.639Z,25.30
2018-12-26T12:02:57.694Z,27.20
2018-12-26T12:05:38.052Z,27.97
2018-12-26T12:08:18.188Z,27.60
2018-12-26T12:10:58.173Z,26.23
2018-12-26T12:13:38.226Z,27.33
2018-12-26T12:16:18.182Z,26.03
2018-12-26T12:18:58.294Z,28.10
2018-12-26T12:21:38.432Z,26.97
2018-12-26T12:24:18.503Z,25.77
2018-12-26T12:26:58.684Z,27.77
2018-12-26T12:29:38.599Z,27.30
2018-12-26T12:32:18.619Z,27.97
2018-12-26T12:34:58.470Z,28.23
2018-12-26T12:37:38.523Z,27.67
2018-12-26T12:40:18.512Z,24.53
2018-12-26T12:42:58.557Z,27.70
2018-12-26T12:45:38.690Z,25.80
2018-12-26T12:48:18.761Z,25.23
2018-12-26T12:50:58.949Z,25.90
2018-12-26T12:53:38.861Z,25.17
2018-12-26T12:56:18.766Z,27.63
2018-12-26T12:58:58.785Z,24.77
2018-12-26T13:01:38.777Z,28.17
2018-12-26T13:04:19.085Z,26.03
2018-12-26T13:06:58.896Z,25.33
2018-12-26T13:09:38.908Z,26.03
2018-12-26T13:12:18.995Z,27.50
2018-12-26T13:14:59.041Z,26.10
2018-12-26T13:17:38.837Z,25.30
2018-12-26T13:20:18.838Z,26.40
2018-12-26T13:22:59.008Z,25.63
2018-12-26T13:25:39.079Z,23.90
2018-12-26T13:28:18.958Z,24.10
2018-12-26T13:31:05.119Z,25.03
2018-12-26T13:33:41.218Z,25.67
2018-12-26T13:36:21.269Z,26.43
2018-12-26T13:39:01.249Z,25.77
2018-12-26T13:41:41.253Z,26.87
2018-12-26T13:44:21.349Z,24.90
2018-12-26T13:47:01.501Z,27.27
2018-12-26T13:49:41.410Z,26.43
2018-12-26T13:52:21.506Z,24.93
2018-12-26T13:55:01.445Z,25.17
2018-12-26T13:57:41.741Z,24.40
2018-12-26T14:00:21.858Z,25.43
2018-12-26T14:03:02.088Z,24.60
2018-12-26T14:05:42.106Z,26.67
2018-12-26T14:08:22.169Z,25.27
2018-12-26T14:11:02.013Z,27.37
2018-12-26T14:13:41.924Z,24.47
2018-12-26T14:16:21.915Z,24.47
2018-12-26T14:19:01.811Z,25.27
2018-12-26T14:21:41.850Z,25.37
2018-12-26T14:24:21.671Z,24.97
2018-12-26T14:27:01.670Z,24.40
2018-12-26T14:29:42.595Z,25.93
2018-12-26T14:32:22.776Z,25.23
2018-12-26T14:35:02.550Z,26.30
2018-12-26T14:37:42.801Z,23.83
2018-12-26T14:40:22.748Z,25.93
2018-12-26T14:43:02.710Z,24.57
2018-12-26T14:45:42.599Z,25.93
2018-12-26T14:48:22.509Z,26.77
2018-12-26T14:51:02.390Z,24.47
2018-12-26T14:53:42.480Z,27.27
2018-12-26T14:56:22.470Z,25.60
2018-12-26T14:59:02.527Z,26.00
2018-12-26T15:01:42.509Z,25.80
2018-12-26T15:04:22.753Z,25.33
2018-12-26T15:07:02.646Z,24.37
2018-12-26T15:09:42.758Z,24.30
2018-12-26T15:12:22.842Z,25.33
2018-12-26T15:15:02.987Z,22.97
2018-12-26T15:17:42.898Z,24.47
2018-12-26T15:20:23.014Z,24.23
2018-12-26T15:23:02.926Z,23.40
2018-12-26T15:25:43.098Z,24.53
2018-12-26T15:28:23.235Z,26.00
2018-12-26T15:31:03.234Z,23.77
2018-12-26T15:33:43.216Z,22.00
2018-12-26T15:36:23.123Z,23.97
2018-12-26T15:39:03.440Z,23.80
2018-12-26T15:41:43.250Z,24.10
2018-12-26T15:44:23.310Z,23.53
2018-12-26T15:47:03.317Z,24.10
2018-12-26T15:49:43.358Z,24.50
2018-12-26T15:52:23.378Z,24.00
2018-12-26T15:55:03.645Z,23.40
2018-12-26T15:57:43.873Z,22.47
2018-12-26T16:00:24.079Z,21.83
2018-12-26T16:03:04.065Z,23.07
2018-12-26T16:05:43.818Z,25.17
2018-12-26T16:08:23.901Z,24.77
2018-12-26T16:11:04.052Z,24.13
2018-12-26T16:13:43.966Z,23.50
2018-12-26T16:16:24.273Z,24.97
2018-12-26T16:19:04.437Z,24.33
2018-12-26T16:21:44.570Z,24.10
2018-12-26T16:24:24.514Z,23.03
2018-12-26T16:27:04.589Z,25.07
2018-12-26T16:29:44.422Z,25.70
2018-12-26T16:32:24.582Z,24.17
2018-12-26T16:35:04.577Z,24.50
2018-12-26T16:37:44.664Z,23.90
2018-12-26T16:40:24.742Z,23.03
2018-12-26T16:43:04.590Z,22.97
2018-12-26T16:45:44.642Z,24.40
2018-12-26T16:48:24.903Z,24.67
2018-12-26T16:51:05.136Z,25.83
2018-12-26T16:53:44.890Z,25.83
2018-12-26T16:56:24.965Z,26.43
2018-12-26T16:59:04.938Z,26.13
2018-12-26T17:01:45.092Z,24.47
2018-12-26T17:04:25.081Z,28.20
2018-12-26T17:07:05.342Z,25.20
2018-12-26T17:09:45.144Z,25.37
2018-12-26T17:12:25.277Z,26.00
2018-12-26T17:15:05.279Z,25.93
2018-12-26T17:17:45.346Z,23.40
2018-12-26T17:20:25.172Z,24.40
2018-12-26T17:23:05.186Z,24.97
2018-12-26T17:25:45.044Z,23.10
2018-12-26T17:28:25.172Z,24.93
2018-12-26T17:31:05.364Z,24.63
2018-12-26T17:33:45.361Z,23.30
2018-12-26T17:36:25.854Z,24.10
2018-12-26T17:39:06.277Z,23.80
2018-12-26T17:41:46.158Z,23.90
2018-12-26T17:44:26.590Z,23.83
2018-12-26T17:47:06.589Z,22.70
2018-12-26T17:49:46.608Z,20.37
2018-12-26T17:52:27.182Z,24.13
2018-12-26T17:55:07.011Z,22.63
2018-12-26T17:57:46.957Z,22.97
2018-12-26T18:00:27.152Z,22.93
2018-12-26T18:03:06.934Z,23.43
2018-12-26T18:05:47.001Z,24.00
2018-12-26T18:08:27.051Z,23.87
2018-12-26T18:11:07.263Z,23.80
2018-12-26T18:13:47.512Z,23.63
2018-12-26T18:16:27.193Z,25.27
2018-12-26T18:19:07.071Z,25.27
2018-12-26T18:21:46.934Z,23.57
2018-12-26T18:24:26.992Z,23.63
2018-12-26T18:27:06.635Z,25.07
2018-12-26T18:29:46.737Z,24.50
2018-12-26T18:32:26.661Z,24.70
2018-12-26T18:35:06.769Z,23.30
2018-12-26T18:37:46.785Z,23.00
2018-12-26T18:40:26.889Z,23.90
2018-12-26T18:43:07.248Z,24.77
2018-12-26T18:45:47.238Z,23.07
2018-12-26T18:48:27.201Z,23.13
2018-12-26T18:51:07.088Z,23.17
2018-12-26T18:53:47.173Z,23.33
2018-12-26T18:56:27.263Z,23.63
2018-12-26T18:59:07.391Z,21.27
2018-12-26T19:01:47.299Z,23.10
2018-12-26T19:04:27.453Z,21.50
2018-12-26T19:07:07.521Z,21.47
2018-12-26T19:09:47.549Z,23.60
2018-12-26T19:12:27.626Z,23.93
2018-12-26T19:15:07.666Z,22.10
2018-12-26T19:17:47.679Z,22.30
2018-12-26T19:20:27.662Z,27.57
2018-12-26T19:23:07.855Z,24.37
2018-12-26T19:25:48.040Z,27.20
2018-12-26T19:28:27.929Z,24.83
2018-12-26T19:31:08.202Z,23.00
2018-12-26T19:33:48.159Z,24.20
2018-12-26T19:36:28.401Z,24.20
2018-12-26T19:39:08.225Z,26.40
2018-12-26T19:41:48.336Z,24.50
2018-12-26T19:44:28.283Z,24.43
2018-12-26T19:47:08.522Z,24.43
2018-12-26T19:49:48.306Z,24.23
2018-12-26T19:52:28.501Z,25.47
2018-12-26T19:55:08.335Z,26.20
2018-12-26T19:57:48.369Z,25.77
2018-12-26T20:00:28.407Z,25.47
2018-12-26T20:03:08.466Z,26.40
2018-12-26T20:05:48.442Z,27.97
2018-12-26T20:08:28.549Z,27.40
2018-12-26T20:11:08.405Z,24.90
2018-12-26T20:13:48.336Z,26.40
2018-12-26T20:16:28.296Z,27.27
2018-12-26T20:19:08.477Z,28.30
2018-12-26T20:21:48.528Z,25.17
2018-12-26T20:24:29.550Z,25.83
2018-12-26T20:27:09.418Z,26.07
2018-12-26T20:29:49.234Z,28.00
2018-12-26T20:32:29.204Z,26.27
2018-12-26T20:35:09.112Z,26.37
2018-12-26T20:37:49.132Z,24.27
2018-12-26T20:40:29.121Z,26.13
2018-12-26T20:43:09.037Z,25.30
2018-12-26T20:45:49.184Z,26.30
2018-12-26T20:48:29.017Z,27.43
2018-12-26T20:51:08.945Z,25.60
2018-12-26T20:53:50.163Z,25.70
2018-12-26T20:56:30.149Z,27.93
2018-12-26T20:59:10.300Z,25.03
2018-12-26T21:01:50.450Z,26.23
2018-12-26T21:04:30.374Z,25.63
2018-12-26T21:07:10.305Z,25.80
2018-12-26T21:09:50.440Z,26.40
2018-12-26T21:12:30.533Z,26.03
2018-12-26T21:15:10.600Z,25.77
2018-12-26T21:17:50.638Z,26.57
2018-12-26T21:20:30.920Z,27.93
2018-12-26T21:23:10.793Z,28.50
2018-12-26T21:25:50.998Z,26.50
2018-12-26T21:28:31.186Z,26.57
2018-12-26T21:31:11.067Z,27.37
2018-12-26T21:33:51.027Z,26.30
2018-12-26T21:36:31.091Z,26.73
2018-12-26T21:39:11.202Z,26.10
2018-12-26T21:41:51.150Z,26.53
2018-12-26T21:44:31.162Z,26.93
2018-12-26T21:47:10.933Z,26.43
2018-12-26T21:49:50.940Z,27.73
2018-12-26T21:52:30.606Z,27.90
2018-12-26T21:55:10.918Z,27.90
2018-12-26T21:57:50.774Z,26.43
2018-12-26T22:00:30.894Z,26.30
2018-12-26T22:03:10.793Z,28.53
2018-12-26T22:05:50.896Z,28.80
2018-12-26T22:08:30.845Z,29.60
2018-12-26T22:11:11.011Z,27.47
2018-12-26T22:13:51.010Z,26.87
2018-12-26T22:16:31.293Z,28.57
2018-12-26T22:19:12.895Z,28.40
2018-12-26T22:21:53.453Z,28.27
2018-12-26T22:24:33.456Z,28.93
2018-12-26T22:27:13.835Z,29.60
2018-12-26T22:29:53.828Z,28.40
2018-12-26T22:32:33.871Z,30.17
2018-12-26T22:35:13.855Z,28.80
2018-12-26T22:37:53.988Z,31.17
2018-12-26T22:40:33.929Z,28.87
2018-12-26T22:43:14.064Z,31.07
2018-12-26T22:45:54.045Z,27.03
2018-12-26T22:48:33.809Z,28.50
2018-12-26T22:51:13.936Z,27.37
2018-12-26T22:53:53.988Z,28.57
2018-12-26T22:56:34.184Z,28.57
2018-12-26T22:59:14.274Z,27.33
2018-12-26T23:01:54.565Z,28.73
2018-12-26T23:04:34.324Z,30.17
2018-12-26T23:07:14.334Z,28.00
2018-12-26T23:09:54.298Z,25.97
2018-12-26T23:12:34.496Z,27.60
2018-12-26T23:15:14.556Z,29.20
2018-12-26T23:17:54.545Z,28.60
2018-12-26T23:20:34.311Z,26.63
2018-12-26T23:23:14.399Z,25.93
2018-12-26T23:25:54.519Z,27.13
2018-12-26T23:28:34.669Z,25.87
2018-12-26T23:31:14.868Z,24.40
2018-12-26T23:33:54.834Z,26.70
2018-12-26T23:36:34.717Z,24.90
2018-12-26T23:39:14.805Z,24.90
2018-12-26T23:41:54.704Z,25.93
2018-12-26T23:44:34.769Z,26.00
2018-12-26T23:47:14.715Z,23.80
2018-12-26T23:49:54.941Z,24.50
2018-12-26T23:52:34.844Z,23.90
2018-12-26T23:55:14.896Z,22.83
2018-12-26T23:57:54.910Z,24.47
